createdAt,value
2023-03-06T00:00:51.876Z,98444.00
2023-03-06T00:01:51.895Z,98440.00
2023-03-06T00:02:52.334Z,98437.00
2023-03-06T00:03:51.985Z,98437.00
2023-03-06T00:04:51.930Z,98435.00
2023-03-06T00:05:52.016Z,98436.00
2023-03-06T00:06:51.965Z,98432.00
2023-03-06T00:07:51.984Z,98433.00
2023-03-06T00:08:51.998Z,98432.00
2023-03-06T00:09:52.046Z,98426.00
2023-03-06T00:10:52.060Z,98429.00
2023-03-06T00:11:52.073Z,98422.00
2023-03-06T00:12:52.112Z,98425.00
2023-03-06T00:13:52.089Z,98425.00
2023-03-06T00:14:52.065Z,98418.00
2023-03-06T00:15:52.154Z,98421.00
2023-03-06T00:16:52.111Z,98421.00
2023-03-06T00:17:52.126Z,98423.00
2023-03-06T00:18:52.147Z,98420.00
2023-03-06T00:19:52.162Z,98422.00
2023-03-06T00:20:52.192Z,98426.00
2023-03-06T00:21:52.208Z,98424.00
2023-03-06T00:22:52.221Z,98421.00
2023-03-06T00:23:52.243Z,98423.00
2023-03-06T00:24:52.272Z,98420.00
2023-03-06T00:25:52.329Z,98422.00
2023-03-06T00:26:52.299Z,98418.00
2023-03-06T00:27:52.315Z,98416.00
2023-03-06T00:28:52.323Z,98415.00
2023-03-06T00:29:52.348Z,98414.00
2023-03-06T00:30:52.373Z,98412.00
2023-03-06T00:31:52.390Z,98405.00
2023-03-06T00:32:52.402Z,98406.00
2023-03-06T00:33:52.410Z,98405.00
2023-03-06T00:34:52.432Z,98403.00
2023-03-06T00:35:52.571Z,98405.00
2023-03-06T00:36:52.454Z,98405.00
2023-03-06T00:37:52.476Z,98405.00
2023-03-06T00:38:52.508Z,98402.00
2023-03-06T00:39:52.528Z,98402.00
2023-03-06T00:40:52.613Z,98400.00
2023-03-06T00:41:52.609Z,98398.00
2023-03-06T00:42:52.580Z,98396.00
2023-03-06T00:43:52.569Z,98398.00
2023-03-06T00:44:52.603Z,98400.00
2023-03-06T00:45:52.932Z,98402.00
2023-03-06T00:46:52.618Z,98398.00
2023-03-06T00:47:52.590Z,98400.00
2023-03-06T00:48:52.842Z,98398.00
2023-03-06T00:49:52.621Z,98393.00
2023-03-06T00:50:52.912Z,98396.00
2023-03-06T00:51:52.652Z,98400.00
2023-03-06T00:52:52.673Z,98393.00
2023-03-06T00:53:52.694Z,98391.00
2023-03-06T00:54:52.688Z,98380.00
2023-03-06T00:55:52.726Z,98387.00
2023-03-06T00:56:52.745Z,98381.00
2023-03-06T00:57:52.787Z,98386.00
2023-03-06T00:58:52.750Z,98383.00
2023-03-06T00:59:52.766Z,98386.00
2023-03-06T01:00:52.834Z,98380.00
2023-03-06T01:01:52.882Z,98381.00
2023-03-06T01:02:52.820Z,98377.00
2023-03-06T01:03:52.837Z,98377.00
2023-03-06T01:04:52.860Z,98374.00
2023-03-06T01:05:52.896Z,98374.00
2023-03-06T01:06:52.881Z,98371.00
2023-03-06T01:07:52.901Z,98370.00
2023-03-06T01:08:52.948Z,98371.00
2023-03-06T01:09:52.935Z,98372.00
2023-03-06T01:10:52.945Z,98368.00
2023-03-06T01:11:52.929Z,98367.00
2023-03-06T01:12:52.958Z,98367.00
2023-03-06T01:13:52.997Z,98368.00
2023-03-06T01:14:52.968Z,98366.00
2023-03-06T01:15:53.029Z,98367.00
2023-03-06T01:16:53.008Z,98363.00
2023-03-06T01:17:53.036Z,98364.00
2023-03-06T01:18:53.052Z,98362.00
2023-03-06T01:19:53.078Z,98363.00
2023-03-06T01:20:53.109Z,98359.00
2023-03-06T01:21:53.138Z,98357.00
2023-03-06T01:22:53.153Z,98359.00
2023-03-06T01:23:53.164Z,98359.00
2023-03-06T01:24:53.198Z,98357.00
2023-03-06T01:25:53.174Z,98352.00
2023-03-06T01:26:53.147Z,98349.00
2023-03-06T01:27:53.183Z,98352.00
2023-03-06T01:28:53.195Z,98352.00
2023-03-06T01:29:53.224Z,98352.00
2023-03-06T01:30:53.201Z,98350.00
2023-03-06T01:31:53.299Z,98348.00
2023-03-06T01:32:53.215Z,98348.00
2023-03-06T01:33:53.228Z,98344.00
2023-03-06T01:34:53.248Z,98346.00
2023-03-06T01:35:53.292Z,98341.00
2023-03-06T01:36:53.275Z,98342.00
2023-03-06T01:37:53.292Z,98339.00
2023-03-06T01:38:53.320Z,98340.00
2023-03-06T01:39:53.328Z,98337.00
2023-03-06T01:40:53.360Z,98336.00
2023-03-06T01:41:53.373Z,98336.00
2023-03-06T01:42:53.397Z,98337.00
2023-03-06T01:43:53.421Z,98335.00
2023-03-06T01:44:53.436Z,98337.00
2023-03-06T01:45:53.556Z,98334.00
2023-03-06T01:46:53.493Z,98332.00
2023-03-06T01:47:53.500Z,98331.00
2023-03-06T01:48:53.515Z,98325.00
2023-03-06T01:49:53.540Z,98329.00
2023-03-06T01:50:53.576Z,98329.00
2023-03-06T01:51:53.555Z,98327.00
2023-03-06T01:52:53.565Z,98324.00
2023-03-06T01:53:53.599Z,98325.00
2023-03-06T01:54:53.579Z,98319.00
2023-03-06T01:55:53.611Z,98317.00
2023-03-06T01:56:53.624Z,98315.00
2023-03-06T01:57:53.652Z,98312.00
2023-03-06T01:58:53.663Z,98308.00
2023-03-06T01:59:53.686Z,98308.00
2023-03-06T02:00:53.793Z,98305.00
2023-03-06T02:01:53.766Z,98300.00
2023-03-06T02:02:53.730Z,98296.00
2023-03-06T02:03:53.765Z,98294.00
2023-03-06T02:04:53.776Z,98298.00
2023-03-06T02:05:53.832Z,98294.00
2023-03-06T02:06:53.797Z,98295.00
2023-03-06T02:07:53.821Z,98298.00
2023-03-06T02:08:53.844Z,98298.00
2023-03-06T02:09:53.859Z,98296.00
2023-03-06T02:10:53.900Z,98297.00
2023-03-06T02:11:53.920Z,98295.00
2023-03-06T02:12:53.934Z,98291.00
2023-03-06T02:13:53.965Z,98290.00
2023-03-06T02:14:53.978Z,98289.00
2023-03-06T02:15:54.020Z,98285.00
2023-03-06T02:16:54.038Z,98284.00
2023-03-06T02:17:54.013Z,98284.00
2023-03-06T02:18:53.978Z,98284.00
2023-03-06T02:19:53.993Z,98282.00
2023-03-06T02:20:54.024Z,98278.00
2023-03-06T02:21:54.038Z,98281.00
2023-03-06T02:22:54.078Z,98274.00
2023-03-06T02:23:54.096Z,98280.00
2023-03-06T02:24:54.110Z,98281.00
2023-03-06T02:25:54.091Z,98277.00
2023-03-06T02:26:54.114Z,98272.00
2023-03-06T02:27:54.131Z,98275.00
2023-03-06T02:28:54.151Z,98278.00
2023-03-06T02:29:54.183Z,98270.00
2023-03-06T02:30:54.285Z,98270.00
2023-03-06T02:31:54.213Z,98267.00
2023-03-06T02:32:54.226Z,98265.00
2023-03-06T02:33:54.273Z,98263.00
2023-03-06T02:34:54.327Z,98261.00
2023-03-06T02:35:54.419Z,98263.00
2023-03-06T02:36:54.307Z,98261.00
2023-03-06T02:37:54.322Z,98261.00
2023-03-06T02:38:54.340Z,98258.00
2023-03-06T02:39:54.385Z,98256.00
2023-03-06T02:40:54.364Z,98261.00
2023-03-06T02:41:54.392Z,98256.00
2023-03-06T02:42:54.403Z,98259.00
2023-03-06T02:43:54.613Z,98259.00
2023-03-06T02:44:54.464Z,98261.00
2023-03-06T02:45:54.590Z,98259.00
2023-03-06T02:46:54.477Z,98256.00
2023-03-06T02:47:54.498Z,98257.00
2023-03-06T02:48:54.518Z,98255.00
2023-03-06T02:49:54.589Z,98254.00
2023-03-06T02:50:54.565Z,98257.00
2023-03-06T02:51:54.594Z,98253.00
2023-03-06T02:52:54.635Z,98254.00
2023-03-06T02:53:54.616Z,98247.00
2023-03-06T02:54:54.646Z,98247.00
2023-03-06T02:55:54.659Z,98246.00
2023-03-06T02:56:54.674Z,98246.00
2023-03-06T02:57:54.689Z,98245.00
2023-03-06T02:58:54.710Z,98244.00
2023-03-06T02:59:54.733Z,98245.00
2023-03-06T03:00:54.747Z,98245.00
2023-03-06T03:01:54.770Z,98241.00
2023-03-06T03:02:54.800Z,98250.00
2023-03-06T03:03:54.820Z,98249.00
2023-03-06T03:04:54.964Z,98246.00
2023-03-06T03:05:54.860Z,98246.00
2023-03-06T03:06:54.845Z,98248.00
2023-03-06T03:07:54.864Z,98250.00
2023-03-06T03:08:54.882Z,98245.00
2023-03-06T03:09:54.906Z,98249.00
2023-03-06T03:10:54.890Z,98247.00
2023-03-06T03:11:54.914Z,98246.00
2023-03-06T03:12:55.206Z,98238.00
2023-03-06T03:13:54.960Z,98242.00
2023-03-06T03:14:54.976Z,98238.00
2023-03-06T03:15:55.013Z,98239.00
2023-03-06T03:16:55.017Z,98239.00
2023-03-06T03:17:55.012Z,98239.00
2023-03-06T03:18:55.028Z,98235.00
2023-03-06T03:19:55.027Z,98235.00
2023-03-06T03:20:55.041Z,98232.00
2023-03-06T03:21:55.061Z,98233.00
2023-03-06T03:22:55.141Z,98229.00
2023-03-06T03:23:55.025Z,98231.00
2023-03-06T03:24:55.140Z,98230.00
2023-03-06T03:25:55.067Z,98231.00
2023-03-06T03:26:55.038Z,98231.00
2023-03-06T03:27:55.081Z,98230.00
2023-03-06T03:28:55.066Z,98229.00
2023-03-06T03:29:55.897Z,98230.00
2023-03-06T03:30:55.877Z,98227.00
2023-03-06T03:31:55.124Z,98227.00
2023-03-06T03:32:55.874Z,98230.00
2023-03-06T03:33:55.142Z,98227.00
2023-03-06T03:34:55.888Z,98224.00
2023-03-06T03:35:55.923Z,98225.00
2023-03-06T03:36:55.877Z,98224.00
2023-03-06T03:37:55.213Z,98225.00
2023-03-06T03:38:55.881Z,98222.00
2023-03-06T03:39:55.181Z,98220.00
2023-03-06T03:40:55.181Z,98217.00
2023-03-06T03:41:55.197Z,98216.00
2023-03-06T03:42:55.438Z,98218.00
2023-03-06T03:43:55.210Z,98216.00
2023-03-06T03:44:55.208Z,98217.00
2023-03-06T03:45:55.189Z,98217.00
2023-03-06T03:46:55.228Z,98218.00
2023-03-06T03:47:55.512Z,98214.00
2023-03-06T03:48:55.259Z,98212.00
2023-03-06T03:49:55.302Z,98217.00
2023-03-06T03:50:55.280Z,98217.00
2023-03-06T03:51:55.292Z,98216.00
2023-03-06T03:52:55.314Z,98214.00
2023-03-06T03:53:55.364Z,98211.00
2023-03-06T03:54:55.329Z,98213.00
2023-03-06T03:55:55.378Z,98211.00
2023-03-06T03:56:55.350Z,98211.00
2023-03-06T03:57:55.390Z,98211.00
2023-03-06T03:58:55.406Z,98210.00
2023-03-06T03:59:55.432Z,98207.00
2023-03-06T04:00:55.444Z,98210.00
2023-03-06T04:01:55.504Z,98205.00
2023-03-06T04:02:55.497Z,98205.00
2023-03-06T04:03:55.469Z,98207.00
2023-03-06T04:04:55.526Z,98204.00
2023-03-06T04:05:55.506Z,98203.00
2023-03-06T04:06:55.520Z,98199.00
2023-03-06T04:07:55.560Z,98199.00
2023-03-06T04:08:55.551Z,98198.00
2023-03-06T04:09:55.590Z,98199.00
2023-03-06T04:10:55.560Z,98196.00
2023-03-06T04:11:55.583Z,98194.00
2023-03-06T04:12:55.620Z,98193.00
2023-03-06T04:13:55.595Z,98193.00
2023-03-06T04:14:55.572Z,98196.00
2023-03-06T04:15:55.653Z,98193.00
2023-03-06T04:16:55.580Z,98188.00
2023-03-06T04:17:55.593Z,98192.00
2023-03-06T04:18:55.612Z,98190.00
2023-03-06T04:19:55.595Z,98191.00
2023-03-06T04:20:55.619Z,98189.00
2023-03-06T04:21:55.635Z,98188.00
2023-03-06T04:22:55.667Z,98188.00
2023-03-06T04:23:55.661Z,98189.00
2023-03-06T04:24:55.652Z,98187.00
2023-03-06T04:25:55.655Z,98188.00
2023-03-06T04:26:55.625Z,98192.00
2023-03-06T04:27:55.657Z,98190.00
2023-03-06T04:28:55.647Z,98188.00
2023-03-06T04:29:55.663Z,98188.00
2023-03-06T04:30:55.689Z,98190.00
2023-03-06T04:31:55.671Z,98192.00
2023-03-06T04:32:55.685Z,98188.00
2023-03-06T04:33:55.709Z,98185.00
2023-03-06T04:34:55.748Z,98183.00
2023-03-06T04:35:55.776Z,98177.00
2023-03-06T04:36:55.768Z,98175.00
2023-03-06T04:37:55.746Z,98182.00
2023-03-06T04:38:55.856Z,98178.00
2023-03-06T04:39:55.799Z,98179.00
2023-03-06T04:40:55.816Z,98177.00
2023-03-06T04:41:55.854Z,98174.00
2023-03-06T04:42:55.818Z,98175.00
2023-03-06T04:43:55.866Z,98172.00
2023-03-06T04:44:56.074Z,98171.00
2023-03-06T04:45:55.938Z,98168.00
2023-03-06T04:46:55.868Z,98169.00
2023-03-06T04:47:55.852Z,98168.00
2023-03-06T04:48:55.881Z,98165.00
2023-03-06T04:49:55.860Z,98160.00
2023-03-06T04:50:55.904Z,98159.00
2023-03-06T04:51:55.879Z,98158.00
2023-03-06T04:52:55.913Z,98152.00
2023-03-06T04:53:55.892Z,98151.00
2023-03-06T04:54:55.916Z,98151.00
2023-03-06T04:55:55.943Z,98152.00
2023-03-06T04:56:55.973Z,98155.00
2023-03-06T04:57:56.021Z,98146.00
2023-03-06T04:58:55.991Z,98147.00
2023-03-06T04:59:56.012Z,98144.00
2023-03-06T05:00:56.116Z,98149.00
2023-03-06T05:01:56.078Z,98144.00
2023-03-06T05:02:56.063Z,98146.00
2023-03-06T05:03:56.072Z,98145.00
2023-03-06T05:04:56.108Z,98145.00
2023-03-06T05:05:56.125Z,98147.00
2023-03-06T05:06:56.165Z,98144.00
2023-03-06T05:07:56.187Z,98142.00
2023-03-06T05:08:56.208Z,98141.00
2023-03-06T05:09:56.228Z,98138.00
2023-03-06T05:10:56.244Z,98141.00
2023-03-06T05:11:57.468Z,98140.00
2023-03-06T05:12:56.312Z,98140.00
2023-03-06T05:13:56.321Z,98142.00
2023-03-06T05:14:56.308Z,98143.00
2023-03-06T05:15:56.326Z,98140.00
2023-03-06T05:16:56.340Z,98139.00
2023-03-06T05:17:56.371Z,98139.00
2023-03-06T05:18:56.380Z,98137.00
2023-03-06T05:19:56.408Z,98138.00
2023-03-06T05:20:56.434Z,98140.00
2023-03-06T05:21:56.461Z,98138.00
2023-03-06T05:22:56.459Z,98138.00
2023-03-06T05:23:56.485Z,98135.00
2023-03-06T05:24:56.515Z,98135.00
2023-03-06T05:25:56.534Z,98136.00
2023-03-06T05:26:56.569Z,98135.00
2023-03-06T05:27:56.582Z,98133.00
2023-03-06T05:28:56.609Z,98136.00
2023-03-06T05:29:56.663Z,98132.00
2023-03-06T05:30:56.629Z,98136.00
2023-03-06T05:31:56.733Z,98134.00
2023-03-06T05:32:56.649Z,98132.00
2023-03-06T05:33:56.672Z,98130.00
2023-03-06T05:34:56.689Z,98127.00
2023-03-06T05:35:56.747Z,98125.00
2023-03-06T05:36:56.747Z,98132.00
2023-03-06T05:37:56.725Z,98130.00
2023-03-06T05:38:56.750Z,98123.00
2023-03-06T05:39:56.765Z,98125.00
2023-03-06T05:40:56.779Z,98128.00
2023-03-06T05:41:56.793Z,98122.00
2023-03-06T05:42:56.780Z,98126.00
2023-03-06T05:43:56.799Z,98128.00
2023-03-06T05:44:56.818Z,98128.00
2023-03-06T05:45:56.938Z,98128.00
2023-03-06T05:46:56.844Z,98131.00
2023-03-06T05:47:56.825Z,98130.00
2023-03-06T05:48:56.866Z,98132.00
2023-03-06T05:49:56.842Z,98130.00
2023-03-06T05:50:56.862Z,98128.00
2023-03-06T05:51:56.901Z,98134.00
2023-03-06T05:52:56.925Z,98130.00
2023-03-06T05:53:56.941Z,98133.00
2023-03-06T05:54:56.964Z,98129.00
2023-03-06T05:55:56.986Z,98129.00
2023-03-06T05:56:57.026Z,98133.00
2023-03-06T05:57:57.011Z,98134.00
2023-03-06T05:58:56.992Z,98133.00
2023-03-06T05:59:57.005Z,98131.00
2023-03-06T06:02:23.025Z,98123.00
2023-03-06T06:03:23.201Z,98131.00
2023-03-06T06:04:22.926Z,98131.00
2023-03-06T06:05:22.965Z,98134.00
2023-03-06T06:06:22.941Z,98136.00
2023-03-06T06:07:22.940Z,98136.00
2023-03-06T06:08:22.965Z,98131.00
2023-03-06T06:09:22.981Z,98138.00
2023-03-06T06:10:23.005Z,98137.00
2023-03-06T06:11:23.027Z,98132.00
2023-03-06T06:12:23.072Z,98137.00
2023-03-06T06:13:23.031Z,98135.00
2023-03-06T06:14:23.057Z,98133.00
2023-03-06T06:15:23.081Z,98138.00
2023-03-06T06:16:23.087Z,98138.00
2023-03-06T06:17:23.387Z,98136.00
2023-03-06T06:18:23.166Z,98136.00
2023-03-06T06:19:23.138Z,98135.00
2023-03-06T06:20:23.168Z,98142.00
2023-03-06T06:21:23.204Z,98147.00
2023-03-06T06:22:23.216Z,98142.00
2023-03-06T06:23:23.246Z,98142.00
2023-03-06T06:24:23.273Z,98140.00
2023-03-06T06:25:23.281Z,98139.00
2023-03-06T06:26:23.297Z,98141.00
2023-03-06T06:27:23.358Z,98141.00
2023-03-06T06:28:23.341Z,98143.00
2023-03-06T06:29:23.369Z,98144.00
2023-03-06T06:30:23.677Z,98141.00
2023-03-06T06:31:23.466Z,98142.00
2023-03-06T06:32:23.430Z,98143.00
2023-03-06T06:33:23.397Z,98141.00
2023-03-06T06:34:23.441Z,98139.00
2023-03-06T06:35:23.472Z,98138.00
2023-03-06T06:36:23.443Z,98135.00
2023-03-06T06:37:23.478Z,98135.00
2023-03-06T06:38:23.454Z,98137.00
2023-03-06T06:39:23.481Z,98136.00
2023-03-06T06:40:23.512Z,98137.00
2023-03-06T06:42:02.330Z,98142.00
2023-03-06T06:42:33.193Z,98140.00
2023-03-06T06:43:23.509Z,98142.00
2023-03-06T06:44:23.534Z,98137.00
2023-03-06T06:45:23.548Z,98136.00
2023-03-06T06:47:02.712Z,98140.00
2023-03-06T06:47:25.428Z,98138.00
2023-03-06T06:48:23.588Z,98137.00
2023-03-06T06:49:23.602Z,98139.00
2023-03-06T06:50:23.620Z,98143.00
2023-03-06T06:51:23.606Z,98138.00
2023-03-06T06:52:23.636Z,98139.00
2023-03-06T06:53:23.656Z,98138.00
2023-03-06T06:54:23.673Z,98139.00
2023-03-06T06:55:23.660Z,98136.00
2023-03-06T06:56:23.673Z,98139.00
2023-03-06T06:57:23.706Z,98137.00
2023-03-06T06:58:23.694Z,98140.00
2023-03-06T06:59:23.886Z,98139.00
2023-03-06T07:00:23.736Z,98137.00
2023-03-06T07:01:23.765Z,98136.00
2023-03-06T07:02:23.769Z,98141.00
2023-03-06T07:03:23.754Z,98138.00
2023-03-06T07:04:23.779Z,98140.00
2023-03-06T07:05:23.818Z,98143.00
2023-03-06T07:06:23.789Z,98139.00
2023-03-06T07:07:25.505Z,98140.00
2023-03-06T07:08:23.783Z,98143.00
2023-03-06T07:09:23.767Z,98141.00
2023-03-06T07:10:23.802Z,98146.00
2023-03-06T07:11:23.802Z,98147.00
2023-03-06T07:12:23.831Z,98143.00
2023-03-06T07:13:23.808Z,98147.00
2023-03-06T07:14:23.808Z,98149.00
2023-03-06T07:15:23.784Z,98149.00
2023-03-06T07:16:23.840Z,98150.00
2023-03-06T07:17:23.839Z,98147.00
2023-03-06T07:18:23.829Z,98148.00
2023-03-06T07:19:23.853Z,98148.00
2023-03-06T07:20:23.875Z,98149.00
2023-03-06T07:21:23.904Z,98147.00
2023-03-06T07:22:23.969Z,98148.00
2023-03-06T07:23:23.965Z,98152.00
2023-03-06T07:24:23.952Z,98148.00
2023-03-06T07:25:23.941Z,98151.00
2023-03-06T07:26:23.965Z,98151.00
2023-03-06T07:27:24.065Z,98152.00
2023-03-06T07:28:24.098Z,98151.00
2023-03-06T07:29:24.009Z,98150.00
2023-03-06T07:30:24.087Z,98152.00
2023-03-06T07:31:24.046Z,98150.00
2023-03-06T07:32:24.110Z,98155.00
2023-03-06T07:33:24.060Z,98156.00
2023-03-06T07:34:24.051Z,98153.00
2023-03-06T07:35:24.052Z,98154.00
2023-03-06T07:36:24.146Z,98160.00
2023-03-06T07:37:24.056Z,98154.00
2023-03-06T07:38:24.101Z,98154.00
2023-03-06T07:39:24.087Z,98154.00
2023-03-06T07:40:24.110Z,98155.00
2023-03-06T07:41:24.099Z,98152.00
2023-03-06T07:42:24.389Z,98157.00
2023-03-06T07:43:24.164Z,98157.00
2023-03-06T07:44:24.150Z,98157.00
2023-03-06T07:45:24.185Z,98157.00
2023-03-06T07:46:24.167Z,98161.00
2023-03-06T07:47:24.159Z,98159.00
2023-03-06T07:48:24.192Z,98149.00
2023-03-06T07:49:24.173Z,98161.00
2023-03-06T07:50:24.171Z,98154.00
2023-03-06T07:51:24.159Z,98159.00
2023-03-06T07:52:24.197Z,98155.00
2023-03-06T07:53:24.169Z,98164.00
2023-03-06T07:54:24.313Z,98163.00
2023-03-06T07:55:24.215Z,98158.00
2023-03-06T07:56:24.588Z,98159.00
2023-03-06T07:57:24.209Z,98164.00
2023-03-06T07:58:24.197Z,98164.00
2023-03-06T07:59:24.180Z,98167.00
2023-03-06T08:00:24.198Z,98165.00
2023-03-06T08:01:24.274Z,98166.00
2023-03-06T08:02:24.161Z,98164.00
2023-03-06T08:03:24.202Z,98149.00
2023-03-06T08:04:24.215Z,98160.00
2023-03-06T08:05:24.247Z,98167.00
2023-03-06T08:06:24.253Z,98156.00
2023-03-06T08:07:24.223Z,98157.00
2023-03-06T08:08:24.244Z,98165.00
2023-03-06T08:09:24.594Z,98162.00
2023-03-06T08:10:24.258Z,98159.00
2023-03-06T08:11:24.235Z,98160.00
2023-03-06T08:12:24.221Z,98161.00
2023-03-06T08:13:24.218Z,98168.00
2023-03-06T08:14:24.250Z,98174.00
2023-03-06T08:15:24.270Z,98166.00
2023-03-06T08:16:24.345Z,98170.00
2023-03-06T08:17:24.594Z,98166.00
2023-03-06T08:18:24.343Z,98167.00
2023-03-06T08:19:24.375Z,98166.00
2023-03-06T08:20:24.363Z,98163.00
2023-03-06T08:21:24.385Z,98166.00
2023-03-06T08:22:24.418Z,98166.00
2023-03-06T08:23:24.395Z,98166.00
2023-03-06T08:24:24.417Z,98167.00
2023-03-06T08:25:24.445Z,98167.00
2023-03-06T08:26:24.511Z,98176.00
2023-03-06T08:27:24.512Z,98173.00
2023-03-06T08:28:24.501Z,98173.00
2023-03-06T08:29:24.488Z,98177.00
2023-03-06T08:30:24.565Z,98176.00
2023-03-06T08:31:24.613Z,98173.00
2023-03-06T08:32:24.649Z,98177.00
2023-03-06T08:33:24.576Z,98178.00
2023-03-06T08:34:24.561Z,98178.00
2023-03-06T08:35:24.595Z,98177.00
2023-03-06T08:36:24.588Z,98174.00
2023-03-06T08:37:24.599Z,98175.00
2023-03-06T08:38:24.601Z,98171.00
2023-03-06T08:39:24.590Z,98171.00
2023-03-06T08:40:24.648Z,98168.00
2023-03-06T08:41:24.633Z,98173.00
2023-03-06T08:42:24.662Z,98169.00
2023-03-06T08:43:24.608Z,98173.00
2023-03-06T08:44:24.634Z,98173.00
2023-03-06T08:45:24.677Z,98168.00
2023-03-06T08:46:24.623Z,98172.00
2023-03-06T08:47:24.662Z,98170.00
2023-03-06T08:48:24.690Z,98167.00
2023-03-06T08:49:24.674Z,98170.00
2023-03-06T08:50:24.769Z,98172.00
2023-03-06T08:51:24.720Z,98168.00
2023-03-06T08:52:24.754Z,98168.00
2023-03-06T08:53:40.383Z,98169.00
2023-03-06T08:54:24.742Z,98170.00
2023-03-06T08:55:24.729Z,98168.00
2023-03-06T08:56:24.754Z,98166.00
2023-03-06T08:57:24.779Z,98169.00
2023-03-06T08:58:24.795Z,98170.00
2023-03-06T08:59:24.909Z,98170.00
2023-03-06T09:00:24.922Z,98170.00
2023-03-06T09:01:24.854Z,98168.00
2023-03-06T09:02:24.813Z,98167.00
2023-03-06T09:03:24.758Z,98174.00
2023-03-06T09:04:24.751Z,98172.00
2023-03-06T09:05:24.766Z,98174.00
2023-03-06T09:06:24.791Z,98166.00
2023-03-06T09:07:24.819Z,98175.00
2023-03-06T09:08:24.847Z,98170.00
2023-03-06T09:09:24.873Z,98169.00
2023-03-06T09:10:25.050Z,98168.00
2023-03-06T09:11:24.889Z,98165.00
2023-03-06T09:12:24.932Z,98171.00
2023-03-06T09:13:24.922Z,98169.00
2023-03-06T09:14:24.945Z,98169.00
2023-03-06T09:15:24.924Z,98171.00
2023-03-06T09:16:24.979Z,98172.00
2023-03-06T09:17:24.965Z,98173.00
2023-03-06T09:18:24.964Z,98169.00
2023-03-06T09:19:24.951Z,98170.00
2023-03-06T09:20:24.946Z,98172.00
2023-03-06T09:21:24.950Z,98173.00
2023-03-06T09:22:24.950Z,98173.00
2023-03-06T09:23:24.973Z,98168.00
2023-03-06T09:24:25.000Z,98169.00
2023-03-06T09:25:25.025Z,98165.00
2023-03-06T09:26:39.645Z,98170.00
2023-03-06T09:27:25.057Z,98173.00
2023-03-06T09:28:25.051Z,98173.00
2023-03-06T09:29:25.048Z,98174.00
2023-03-06T09:30:25.186Z,98173.00
2023-03-06T09:31:25.089Z,98173.00
2023-03-06T09:32:25.182Z,98170.00
2023-03-06T09:33:25.073Z,98171.00
2023-03-06T09:34:25.091Z,98176.00
2023-03-06T09:35:25.106Z,98175.00
2023-03-06T09:36:25.095Z,98174.00
2023-03-06T09:37:25.083Z,98171.00
2023-03-06T09:38:25.080Z,98177.00
2023-03-06T09:39:25.125Z,98178.00
2023-03-06T09:40:25.111Z,98174.00
2023-03-06T09:41:25.097Z,98176.00
2023-03-06T09:42:25.133Z,98170.00
2023-03-06T09:43:25.126Z,98165.00
2023-03-06T09:44:25.106Z,98168.00
2023-03-06T09:45:25.157Z,98167.00
2023-03-06T09:46:25.226Z,98169.00
2023-03-06T09:47:25.136Z,98168.00
2023-03-06T09:48:25.121Z,98168.00
2023-03-06T09:49:25.146Z,98172.00
2023-03-06T09:50:25.177Z,98175.00
2023-03-06T09:51:25.219Z,98174.00
2023-03-06T09:52:25.196Z,98173.00
2023-03-06T09:53:25.248Z,98170.00
2023-03-06T09:54:25.256Z,98166.00
2023-03-06T09:55:25.242Z,98169.00
2023-03-06T09:56:25.224Z,98170.00
2023-03-06T09:57:25.247Z,98166.00
2023-03-06T09:58:25.273Z,98163.00
2023-03-06T09:59:25.318Z,98169.00
2023-03-06T10:00:25.312Z,98173.00
2023-03-06T10:01:25.296Z,98164.00
2023-03-06T10:02:25.461Z,98167.00
2023-03-06T10:03:25.379Z,98162.00
2023-03-06T10:04:25.296Z,98166.00
2023-03-06T10:05:25.286Z,98164.00
2023-03-06T10:06:25.292Z,98164.00
2023-03-06T10:07:25.302Z,98166.00
2023-03-06T10:08:25.278Z,98170.00
2023-03-06T10:09:25.308Z,98170.00
2023-03-06T10:10:26.120Z,98167.00
2023-03-06T10:11:25.344Z,98168.00
2023-03-06T10:12:25.344Z,98169.00
2023-03-06T10:13:25.327Z,98168.00
2023-03-06T10:14:25.372Z,98175.00
2023-03-06T10:15:25.430Z,98175.00
2023-03-06T10:16:25.382Z,98176.00
2023-03-06T10:17:25.360Z,98175.00
2023-03-06T10:18:25.413Z,98177.00
2023-03-06T10:19:25.347Z,98172.00
2023-03-06T10:20:25.403Z,98170.00
2023-03-06T10:21:25.414Z,98170.00
2023-03-06T10:22:25.413Z,98170.00
2023-03-06T10:23:25.413Z,98176.00
2023-03-06T10:24:25.405Z,98173.00
2023-03-06T10:25:25.398Z,98173.00
2023-03-06T10:26:25.562Z,98169.00
2023-03-06T10:27:25.408Z,98171.00
2023-03-06T10:28:25.409Z,98172.00
2023-03-06T10:29:25.405Z,98175.00
2023-03-06T10:30:26.519Z,98170.00
2023-03-06T10:31:25.429Z,98170.00
2023-03-06T10:32:25.456Z,98168.00
2023-03-06T10:33:25.407Z,98164.00
2023-03-06T10:34:25.430Z,98166.00
2023-03-06T10:35:25.486Z,98166.00
2023-03-06T10:36:25.426Z,98168.00
2023-03-06T10:37:25.421Z,98168.00
2023-03-06T10:38:25.417Z,98169.00
2023-03-06T10:39:25.437Z,98169.00
2023-03-06T10:40:25.418Z,98165.00
2023-03-06T10:41:25.450Z,98172.00
2023-03-06T10:42:26.623Z,98168.00
2023-03-06T10:43:25.462Z,98170.00
2023-03-06T10:44:25.460Z,98173.00
2023-03-06T10:45:25.443Z,98166.00
2023-03-06T10:46:25.553Z,98167.00
2023-03-06T10:47:25.464Z,98169.00
2023-03-06T10:48:25.455Z,98169.00
2023-03-06T10:49:25.448Z,98168.00
2023-03-06T10:50:25.458Z,98178.00
2023-03-06T10:51:25.464Z,98173.00
2023-03-06T10:52:25.439Z,98169.00
2023-03-06T10:53:25.464Z,98175.00
2023-03-06T10:54:25.467Z,98168.00
2023-03-06T10:55:25.452Z,98171.00
2023-03-06T10:56:25.472Z,98168.00
2023-03-06T10:57:25.502Z,98170.00
2023-03-06T10:58:25.522Z,98170.00
2023-03-06T10:59:25.685Z,98160.00
2023-03-06T11:00:25.540Z,98167.00
2023-03-06T11:01:25.589Z,98156.00
2023-03-06T11:02:25.574Z,98158.00
2023-03-06T11:03:25.597Z,98162.00
2023-03-06T11:04:25.698Z,98161.00
2023-03-06T11:05:25.623Z,98158.00
2023-03-06T11:06:25.677Z,98161.00
2023-03-06T11:07:26.132Z,98152.00
2023-03-06T11:08:25.640Z,98159.00
2023-03-06T11:09:25.704Z,98151.00
2023-03-06T11:10:25.681Z,98148.00
2023-03-06T11:11:37.167Z,98146.00
2023-03-06T11:12:25.674Z,98146.00
2023-03-06T11:13:25.658Z,98150.00
2023-03-06T11:14:27.646Z,98147.00
2023-03-06T11:15:25.680Z,98142.00
2023-03-06T11:16:26.128Z,98151.00
2023-03-06T11:17:25.664Z,98146.00
2023-03-06T11:18:25.655Z,98146.00
2023-03-06T11:19:25.682Z,98142.00
2023-03-06T11:20:25.689Z,98141.00
2023-03-06T11:21:25.693Z,98141.00
2023-03-06T11:22:25.874Z,98141.00
2023-03-06T11:23:25.724Z,98142.00
2023-03-06T11:24:25.757Z,98143.00
2023-03-06T11:25:25.777Z,98144.00
2023-03-06T11:26:25.791Z,98143.00
2023-03-06T11:27:25.812Z,98145.00
2023-03-06T11:28:25.802Z,98137.00
2023-03-06T11:29:25.883Z,98139.00
2023-03-06T11:30:25.791Z,98135.00
2023-03-06T11:31:25.850Z,98138.00
2023-03-06T11:32:25.946Z,98135.00
2023-03-06T11:33:25.803Z,98133.00
2023-03-06T11:34:25.830Z,98128.00
2023-03-06T11:35:25.937Z,98132.00
2023-03-06T11:36:25.866Z,98130.00
2023-03-06T11:37:25.892Z,98119.00
2023-03-06T11:38:26.024Z,98124.00
2023-03-06T11:39:25.930Z,98123.00
2023-03-06T11:40:25.926Z,98122.00
2023-03-06T11:41:25.914Z,98121.00
2023-03-06T11:42:25.940Z,98116.00
2023-03-06T11:43:25.923Z,98118.00
2023-03-06T11:44:25.911Z,98118.00
2023-03-06T11:45:25.939Z,98113.00
2023-03-06T11:46:25.970Z,98112.00